KGIF/GIF METAR and TAF weather

Enter ICAO airport designator
Station Type Date Time Source
KGIF METAR 2021/01/16 02:53 UTC NOAA

KGIF 160253Z AUTO 27004KT 8SM -RA OVC037 14/12 A2990 RMK AO2 RAB04E16B45 SLP122 P0000 60010 T01390122 51025


Station Type Date Time Source
KGIF Decoded METAR 2021/01/16 02:53 UTC NOAA

WINTER HAVENS GILBERT AIRPORT , FL, United States (KGIF) 28-04N 81-45W 43M
Jan 15, 2021 - 09:53 PM EST / 2021.01.16 0253 UTC
Wind: from the W (270 degrees) at 5 MPH (4 KT):0
Visibility: 8 mile(s):0
Sky conditions: overcast
Weather: light rain
Precipitation last hour: A trace
Temperature: 57.0 F (13.9 C)
Dew Point: 54.0 F (12.2 C)
Relative Humidity: 89%
Pressure (altimeter): 29.9 in. Hg (1012 hPa)
Pressure tendency: 0.07 inches (2.5 hPa) higher than three hours ago
ob: KGIF 160253Z AUTO 27004KT 8SM -RA OVC037 14/12 A2990 RMK AO2 RAB04E16B45 SLP122 P0000 60010 T01390122 51025
cycle: 3

Station Type Date Time Source
KGIF TAF UTC NOAA

Error!

Example: see airport list